»·PEaware :: AAL2597 KDFW-KBUR

AAL2597 :: KDFW-KBUR

FLIGHT INFORMATION

Flight Status: Arrived
Operator:
American Airlines
More flights by this operator :: More flights under this callsign
Pilot: Andrew C. (28419)
Aircraft: AIRBUS A319
(A319)
More flights by this aircraft type
Origin: KDFW Dallas-Ft Worth Intl
United States
Destination: KBUR Bob Hope-Burbank
United States
More flights between these airports :: More routes between these airports
Route: +WSTEX2 CIKAN EWM J4 BXK PHRED THRNE3
File this flight plan on PilotEdge
Remarks: RMK / SIMBRIEF
Altitude:
(Current/Filed)
38,000ft
Speed:
(Current/Filed)
446kts
Departed: 23-Oct-20 06:17 PM
Arrived: 23-Oct-20 09:15 PM
Distance/Time
Traveled:
1067nm/2:57
Distance/Time
To Go:
Arrived

Flight Plot

Page will automatically refresh every two minutes.

Flight plan parsing failed; only flown route is shown


Map Options




Map Legend


Flown Route
Filed Route
Departure Airport
Arrival Airport
Navaid (VOR, NDB)
Fix

Horizontal Profiles

Position Reports

Time Latitude Longitude Heading Altitude Ground
Speed
23-Oct-20 18:15 32.932504 -97.344293 234 14165ft 351kts
23-Oct-20 18:16 32.871624 -97.437729 234 16809ft 365kts
23-Oct-20 18:17 32.808313 -97.534928 235 19161ft 378kts
23-Oct-20 18:18 32.742835 -97.635168 234 21252ft 390kts
23-Oct-20 18:19 32.682580 -97.740099 251 23083ft 397kts
23-Oct-20 18:20 32.667136 -97.874734 265 23980ft 426kts
23-Oct-20 18:21 32.656224 -98.016946 265 25497ft 436kts
23-Oct-20 18:22 32.645278 -98.153751 265 26827ft 443kts
23-Oct-20 18:23 32.634304 -98.290163 265 28516ft 438kts
23-Oct-20 18:24 32.622682 -98.433340 265 30067ft 435kts
23-Oct-20 18:25 32.610906 -98.575546 265 31563ft 430kts
23-Oct-20 18:26 32.599161 -98.715612 264 32940ft 424kts
23-Oct-20 18:27 32.587436 -98.853555 264 34177ft 419kts
23-Oct-20 18:28 32.575657 -98.990181 264 35245ft 414kts
23-Oct-20 18:29 32.563847 -99.125227 264 36163ft 411kts
23-Oct-20 18:30 32.551911 -99.259627 265 36936ft 408kts
23-Oct-20 18:31 32.541922 -99.393033 267 37537ft 406kts
23-Oct-20 18:32 32.534008 -99.526143 267 38096ft 404kts
23-Oct-20 18:33 32.525906 -99.659053 266 38343ft 404kts
23-Oct-20 18:34 32.517725 -99.791171 266 38345ft 403kts
23-Oct-20 18:35 32.509344 -99.923624 266 38347ft 403kts
23-Oct-20 18:36 32.500838 -100.055642 266 38360ft 402kts
23-Oct-20 18:37 32.492198 -100.187463 266 38371ft 402kts
23-Oct-20 18:38 32.483386 -100.319580 266 38372ft 402kts
23-Oct-20 18:39 32.474838 -100.451616 266 38373ft 402kts
23-Oct-20 18:40 32.466067 -100.583381 266 38373ft 402kts
23-Oct-20 18:41 32.457122 -100.715112 266 38373ft 402kts
23-Oct-20 18:42 32.448024 -100.847253 266 38372ft 402kts
23-Oct-20 18:43 32.438775 -100.979224 266 38368ft 402kts
23-Oct-20 18:44 32.429399 -101.110926 266 38363ft 402kts
23-Oct-20 18:45 32.419888 -101.242753 266 38362ft 402kts
23-Oct-20 18:46 32.410236 -101.374522 266 38362ft 401kts
23-Oct-20 18:47 32.400475 -101.505852 266 38360ft 401kts
23-Oct-20 18:48 32.390578 -101.637178 266 38360ft 400kts
23-Oct-20 18:49 32.380602 -101.767936 266 38361ft 400kts
23-Oct-20 18:50 32.370482 -101.898832 266 38359ft 399kts
23-Oct-20 18:51 32.360251 -102.029216 266 38359ft 399kts
23-Oct-20 18:52 32.349847 -102.160001 266 38357ft 399kts
23-Oct-20 18:53 32.339275 -102.291157 266 38355ft 399kts
23-Oct-20 18:54 32.328578 -102.422144 266 38351ft 399kts
23-Oct-20 18:55 32.317769 -102.552765 266 38348ft 400kts
23-Oct-20 18:56 32.306831 -102.683398 265 38347ft 400kts
23-Oct-20 18:57 32.295719 -102.814680 265 38346ft 400kts
23-Oct-20 18:58 32.284536 -102.944875 265 38346ft 399kts
23-Oct-20 18:59 32.273203 -103.075345 265 38345ft 399kts
23-Oct-20 19:00 32.261734 -103.205612 266 38341ft 398kts
23-Oct-20 19:01 32.250169 -103.335604 266 38338ft 398kts
23-Oct-20 19:02 32.238494 -103.465277 266 38338ft 397kts
23-Oct-20 19:03 32.226672 -103.594961 266 38338ft 397kts
23-Oct-20 19:04 32.214781 -103.724227 265 38338ft 396kts
23-Oct-20 19:05 32.202767 -103.853294 265 38339ft 396kts
23-Oct-20 19:06 32.190628 -103.982141 265 38337ft 395kts
23-Oct-20 19:07 32.178391 -104.110605 265 38330ft 395kts
23-Oct-20 19:08 32.166000 -104.239271 265 38322ft 395kts
23-Oct-20 19:09 32.153437 -104.368360 265 38318ft 396kts
23-Oct-20 19:10 32.140743 -104.497352 265 38318ft 396kts
23-Oct-20 19:11 32.127936 -104.626214 265 38318ft 396kts
23-Oct-20 19:12 32.114991 -104.755141 265 38318ft 396kts
23-Oct-20 19:13 32.101910 -104.884118 265 38318ft 397kts
23-Oct-20 19:14 32.088663 -105.013249 265 38308ft 397kts
23-Oct-20 19:15 32.075286 -105.142323 265 38289ft 397kts
23-Oct-20 19:16 32.061781 -105.271421 265 38276ft 397kts
23-Oct-20 19:17 32.048091 -105.400782 265 38273ft 397kts
23-Oct-20 19:18 32.034353 -105.529401 265 38273ft 396kts
23-Oct-20 19:19 32.020503 -105.658140 264 38274ft 397kts
23-Oct-20 19:20 32.006433 -105.787209 264 38273ft 397kts
23-Oct-20 19:21 31.992270 -105.915774 263 38270ft 397kts
23-Oct-20 19:22 31.977887 -106.044661 263 38249ft 397kts
23-Oct-20 19:23 31.963332 -106.173733 263 38226ft 397kts
23-Oct-20 19:24 31.958368 -106.302884 273 38219ft 396kts
23-Oct-20 19:25 31.971290 -106.432004 277 38219ft 396kts
23-Oct-20 19:26 31.986246 -106.560660 277 38219ft 396kts
23-Oct-20 19:27 32.001033 -106.689032 277 38220ft 396kts
23-Oct-20 19:28 32.015696 -106.817548 277 38219ft 395kts
23-Oct-20 19:29 32.030185 -106.945486 277 38211ft 395kts
23-Oct-20 19:30 32.044545 -107.073339 277 38198ft 394kts
23-Oct-20 19:31 32.058768 -107.201077 276 38191ft 394kts
23-Oct-20 19:32 32.072868 -107.329031 276 38190ft 393kts
23-Oct-20 19:33 32.086801 -107.456628 276 38190ft 393kts
23-Oct-20 19:34 32.100604 -107.584148 276 38190ft 392kts
23-Oct-20 19:36 32.114334 -107.712674 276 38191ft 392kts
23-Oct-20 19:37 32.127830 -107.840159 276 38190ft 392kts
23-Oct-20 19:38 32.141189 -107.967366 276 38190ft 392kts
23-Oct-20 19:39 32.154083 -108.091322 276 38192ft 392kts
23-Oct-20 19:40 32.167259 -108.219256 276 38203ft 392kts
23-Oct-20 19:41 32.179935 -108.343506 276 38214ft 392kts
23-Oct-20 19:42 32.192802 -108.471058 276 38217ft 392kts
23-Oct-20 19:44 32.217776 -108.722761 275 38217ft 392kts
23-Oct-20 19:45 32.230203 -108.850115 275 38217ft 392kts
23-Oct-20 19:46 32.242543 -108.977965 275 38217ft 392kts
23-Oct-20 19:47 32.254700 -109.105774 275 38205ft 392kts
23-Oct-20 19:48 32.269743 -109.233839 280 38179ft 393kts
23-Oct-20 19:49 32.303111 -109.357605 289 38165ft 397kts
23-Oct-20 19:50 32.345286 -109.478604 289 38160ft 397kts
23-Oct-20 19:51 32.387259 -109.599167 289 38145ft 397kts
23-Oct-20 19:51 32.422188 -109.699987 289 38128ft 397kts
23-Oct-20 19:53 32.470701 -109.840584 289 38103ft 396kts
23-Oct-20 19:53 32.505319 -109.941074 289 38087ft 396kts
23-Oct-20 19:55 32.553716 -110.082015 289 38083ft 396kts
23-Oct-20 19:55 32.588157 -110.182756 289 38085ft 397kts
23-Oct-20 19:57 32.636312 -110.324073 289 38087ft 397kts
23-Oct-20 19:57 32.670657 -110.425247 289 38087ft 397kts
23-Oct-20 19:58 32.711740 -110.546688 289 38087ft 397kts
23-Oct-20 19:59 32.752780 -110.668484 288 38089ft 397kts
23-Oct-20 20:00 32.793503 -110.790153 288 38087ft 397kts
23-Oct-20 20:02 32.841036 -110.932364 288 38086ft 397kts
23-Oct-20 20:02 32.874878 -111.033946 288 38072ft 398kts
23-Oct-20 20:03 32.915476 -111.156277 288 38043ft 398kts
23-Oct-20 20:04 32.955868 -111.278465 288 38028ft 398kts
23-Oct-20 20:05 32.996211 -111.400975 288 38024ft 398kts
23-Oct-20 20:06 33.036368 -111.523407 288 38019ft 398kts
23-Oct-20 20:07 33.076619 -111.646614 288 38014ft 398kts
23-Oct-20 20:08 33.116676 -111.769471 288 38009ft 398kts
23-Oct-20 20:09 33.156848 -111.892526 287 38005ft 398kts
23-Oct-20 20:10 33.196609 -112.015502 287 37997ft 398kts
23-Oct-20 20:11 33.236244 -112.138707 287 37990ft 399kts
23-Oct-20 20:12 33.275925 -112.262560 287 37988ft 399kts
23-Oct-20 20:13 33.315286 -112.385899 287 37988ft 399kts
23-Oct-20 20:14 33.354580 -112.509579 287 37988ft 399kts
23-Oct-20 20:15 33.393749 -112.633501 287 37988ft 399kts
23-Oct-20 20:16 33.432813 -112.757966 287 37988ft 399kts
23-Oct-20 20:17 33.462945 -112.884890 278 37987ft 396kts
23-Oct-20 20:18 33.482873 -113.014358 278 37983ft 396kts
23-Oct-20 20:19 33.502499 -113.143698 277 37985ft 396kts
23-Oct-20 20:20 33.522011 -113.273358 277 37988ft 396kts
23-Oct-20 20:21 33.541421 -113.403306 277 37992ft 397kts
23-Oct-20 20:22 33.560731 -113.533610 277 37995ft 397kts
23-Oct-20 20:23 33.579916 -113.664037 277 38001ft 397kts
23-Oct-20 20:24 33.598871 -113.794235 277 38002ft 398kts
23-Oct-20 20:25 33.617754 -113.924807 277 38004ft 398kts
23-Oct-20 20:26 33.636486 -114.055449 277 38002ft 398kts
23-Oct-20 20:27 33.652528 -114.186683 274 37975ft 397kts
23-Oct-20 20:28 33.665629 -114.317940 274 37938ft 396kts
23-Oct-20 20:29 33.678496 -114.448920 274 37926ft 396kts
23-Oct-20 20:30 33.691282 -114.580604 274 37923ft 396kts
23-Oct-20 20:31 33.703834 -114.711488 273 37923ft 396kts
23-Oct-20 20:32 33.716302 -114.843033 273 37732ft 396kts
23-Oct-20 20:33 33.728446 -114.972586 273 36736ft 386kts
23-Oct-20 20:34 33.740271 -115.100717 273 35598ft 389kts
23-Oct-20 20:35 33.752672 -115.230469 274 33003ft 394kts
23-Oct-20 20:36 33.766067 -115.361888 274 30074ft 401kts
23-Oct-20 20:37 33.780016 -115.498108 274 28730ft 421kts
23-Oct-20 20:38 33.794293 -115.637733 274 28831ft 421kts
23-Oct-20 20:39 33.807757 -115.777313 274 28934ft 421kts
23-Oct-20 20:40 33.822213 -115.921720 274 28963ft 422kts
23-Oct-20 20:41 33.836705 -116.066041 274 25165ft 435kts
23-Oct-20 20:42 33.849178 -116.208912 273 21898ft 419kts
23-Oct-20 20:43 33.859453 -116.346235 273 19298ft 401kts
23-Oct-20 20:44 33.871646 -116.476672 275 16804ft 388kts
23-Oct-20 20:45 33.889271 -116.607189 279 15692ft 401kts
23-Oct-20 20:46 33.910276 -116.739545 278 14742ft 395kts
23-Oct-20 20:47 33.931655 -116.875383 279 14742ft 396kts
23-Oct-20 20:48 33.955471 -117.005004 284 12678ft 384kts
23-Oct-20 20:49 33.984616 -117.127007 284 10792ft 376kts
23-Oct-20 20:50 34.013757 -117.248532 284 10875ft 375kts
23-Oct-20 20:51 34.039671 -117.357134 284 10934ft 295kts
23-Oct-20 20:52 34.060651 -117.445743 284 10050ft 265kts
23-Oct-20 20:53 34.077982 -117.528517 279 10006ft 248kts
23-Oct-20 20:54 34.090811 -117.611654 279 10012ft 248kts
23-Oct-20 20:55 34.103596 -117.694150 278 10012ft 248kts
23-Oct-20 20:56 34.116395 -117.776288 278 10010ft 248kts
23-Oct-20 20:57 34.128997 -117.858871 278 9996ft 248kts
23-Oct-20 20:58 34.141567 -117.941770 278 8877ft 249kts
23-Oct-20 20:59 34.152604 -118.023773 268 8025ft 245kts
23-Oct-20 21:00 34.148740 -118.105951 265 8012ft 245kts
23-Oct-20 21:01 34.144540 -118.188133 265 7854ft 241kts
23-Oct-20 21:02 34.140436 -118.269406 265 6631ft 240kts
23-Oct-20 21:03 34.136222 -118.349843 265 6016ft 239kts
23-Oct-20 21:04 34.132072 -118.430395 265 5711ft 236kts
23-Oct-20 21:05 34.127847 -118.506120 265 4608ft 234kts
23-Oct-20 21:06 34.123138 -118.583893 265 4020ft 231kts
23-Oct-20 21:07 34.131635 -118.657130 328 3996ft 209kts
23-Oct-20 21:08 34.176785 -118.638245 61 4032ft 195kts
23-Oct-20 21:09 34.198866 -118.579064 84 4040ft 194kts
23-Oct-20 21:10 34.199754 -118.514045 90 3171ft 192kts
23-Oct-20 21:11 34.198978 -118.454020 90 2198ft 155kts
23-Oct-20 21:12 34.198406 -118.406486 91 1455ft 139kts
23-Oct-20 21:13 34.197786 -118.360751 91 786ft 124kts
23-Oct-20 21:14 34.197385 -118.350159 171 785ft 0kts
23-Oct-20 21:15 34.196848 -118.350154 181 785ft 4kts
23-Oct-20 21:16 34.196733 -118.350158 181 785ft 0kts
23-Oct-20 21:17 34.196733 -118.350158 181 785ft 0kts
23-Oct-20 21:18 34.196733 -118.350158 181 785ft 0kts
23-Oct-20 21:19 34.196732 -118.350158 181 786ft 0kts
23-Oct-20 21:20 34.196732 -118.350158 181 786ft 0kts
23-Oct-20 21:21 34.196732 -118.350158 181 786ft 0kts
23-Oct-20 21:22 34.196732 -118.350158 181 786ft 0kts
23-Oct-20 21:23 34.196732 -118.350158 181 786ft 0kts
23-Oct-20 21:24 34.196732 -118.350158 181 786ft 0kts
23-Oct-20 21:25 34.196732 -118.350158 181 786ft 0kts
23-Oct-20 21:26 34.196732 -118.350158 181 786ft 0kts
23-Oct-20 21:27 34.196732 -118.350158 181 786ft 0kts

Navigation Log

Ident Type
Flight plan parsing failed, navigation log unavailable